Time;durP1;ratioP1;P1;durP2;ratioP2;P2;SDS_P1;SDS_P2;PMS_P1;PMS_P2;Temp;Humidity;BMP_temperature;BMP_pressure;BME280_temperature;BME280_humidity;BME280_pressure;Samples;Min_cycle;Max_cycle;Signal;HPM_P1;HPM_P2
2022/06/08 00:01:03;;;;;;;124.97;47.72;;;;;;;13.18;100.00;100932.97;5036031;28;20365;-68
2022/06/08 00:03:33;;;;;;;111.57;47.25;;;;;;;13.19;100.00;100936.50;5047545;28;20121;-69
2022/06/08 00:05:59;;;;;;;111.07;47.55;;;;;;;13.18;100.00;100929.44;5043506;28;20480;-68
2022/06/08 00:08:24;;;;;;;116.20;48.90;;;;;;;13.18;100.00;100927.66;5046850;28;20028;-68
2022/06/08 00:10:50;;;;;;;106.75;47.22;;;;;;;13.22;100.00;100924.13;5046535;28;20029;-67
2022/06/08 00:13:15;;;;;;;112.82;48.20;;;;;;;13.16;100.00;100921.47;5045873;28;20103;-69
2022/06/08 00:15:41;;;;;;;132.82;48.60;;;;;;;13.07;100.00;100921.53;5044341;28;20033;-67
2022/06/08 00:18:07;;;;;;;109.22;47.05;;;;;;;13.19;100.00;100916.19;5044662;28;20456;-68
2022/06/08 00:20:33;;;;;;;126.65;49.47;;;;;;;13.16;100.00;100909.97;5045735;28;20025;-69
2022/06/08 00:22:58;;;;;;;121.72;48.33;;;;;;;13.18;100.00;100906.44;5046022;28;20391;-67
2022/06/08 00:25:24;;;;;;;115.68;47.55;;;;;;;13.19;100.00;100907.31;5044786;28;20017;-68
2022/06/08 00:27:49;;;;;;;117.90;48.75;;;;;;;13.21;100.00;100901.09;5041463;28;20115;-69
2022/06/08 00:30:14;;;;;;;114.35;47.38;;;;;;;13.25;100.00;100902.84;5047098;28;20064;-69
2022/06/08 00:32:40;;;;;;;117.05;46.80;;;;;;;13.15;100.00;100901.16;5046874;28;20025;-69
2022/06/08 00:35:06;;;;;;;110.97;46.42;;;;;;;13.10;100.00;100900.28;5044030;28;20063;-69
2022/06/08 00:37:32;;;;;;;114.15;46.80;;;;;;;13.01;100.00;100897.69;5044842;28;20025;-67
2022/06/08 00:39:57;;;;;;;112.30;46.97;;;;;;;13.00;100.00;100899.44;5045067;28;20055;-68
2022/06/08 00:42:25;;;;;;;112.15;46.20;;;;;;;12.93;100.00;100895.06;5046246;28;20025;-68
2022/06/08 00:44:59;;;;;;;104.20;45.00;;;;;;;12.89;100.00;100886.22;5043793;28;20028;-69
2022/06/08 00:47:38;;;;;;;102.20;43.88;;;;;;;12.82;100.00;100892.44;5041513;28;20349;-68
2022/06/08 00:50:11;;;;;;;100.78;43.90;;;;;;;12.80;100.00;100885.38;5045857;28;20371;-68
2022/06/08 00:52:36;;;;;;;119.85;45.85;;;;;;;12.69;100.00;100881.00;5044380;28;20476;-68
2022/06/08 00:55:06;;;;;;;116.35;46.22;;;;;;;12.64;100.00;100881.91;5045943;28;20031;-68
2022/06/08 00:57:36;;;;;;;120.30;47.22;;;;;;;12.69;100.00;100874.81;5041980;28;20028;-69
2022/06/08 01:00:27;;;;;;;123.30;48.85;;;;;;;12.66;100.00;100873.06;5040475;28;20090;-68
2022/06/08 01:02:53;;;;;;;117.30;46.20;;;;;;;12.58;100.00;100872.19;5044300;28;20022;-68
2022/06/08 01:05:50;;;;;;;111.03;46.35;;;;;;;12.56;100.00;100871.34;5045579;28;20049;-68
2022/06/08 01:08:40;;;;;;;117.82;46.80;;;;;;;12.53;100.00;100864.25;5045023;28;20069;-68
2022/06/08 01:11:10;;;;;;;111.50;46.83;;;;;;;12.52;100.00;100866.91;5033171;28;20041;-67
2022/06/08 01:13:38;;;;;;;114.32;46.15;;;;;;;12.47;100.00;100864.28;5034861;28;20042;-68
2022/06/08 01:16:06;;;;;;;113.97;46.28;;;;;;;12.49;100.00;100857.19;5035500;28;20045;-68
2022/06/08 01:18:32;;;;;;;110.38;45.33;;;;;;;12.48;100.00;100843.94;5033765;28;20435;-67
2022/06/08 01:21:22;;;;;;;109.22;44.60;;;;;;;12.44;100.00;100845.75;5036461;28;20030;-69
2022/06/08 01:23:55;;;;;;;114.75;45.05;;;;;;;12.43;100.00;100845.75;5035411;28;20034;-67
2022/06/08 01:26:30;;;;;;;113.30;44.30;;;;;;;12.38;100.00;100837.81;5036003;28;20159;-68
2022/06/08 01:29:06;;;;;;;117.20;45.53;;;;;;;12.33;100.00;100843.13;5035621;28;20041;-67
2022/06/08 01:31:31;;;;;;;118.50;44.80;;;;;;;12.24;100.00;100840.50;5031638;28;20025;-69
2022/06/08 01:34:13;;;;;;;114.97;44.90;;;;;;;12.28;100.00;100836.09;5038868;28;20139;-68
2022/06/08 01:36:52;;;;;;;116.40;45.20;;;;;;;12.26;100.00;100820.19;5034697;28;20037;-68
2022/06/08 01:39:41;;;;;;;113.80;43.97;;;;;;;12.27;100.00;100818.41;5032560;28;20104;-67
2022/06/08 01:42:09;;;;;;;112.03;44.45;;;;;;;12.24;100.00;100816.63;5032686;28;20077;-68
2022/06/08 01:45:28;;;;;;;113.25;44.75;;;;;;;12.25;100.00;100820.19;5034528;28;20063;-68
2022/06/08 01:48:17;;;;;;;113.05;44.38;;;;;;;12.28;100.00;100814.88;5038582;28;20037;-66
2022/06/08 01:51:14;;;;;;;111.93;43.67;;;;;;;12.27;100.00;100816.63;5068705;28;20419;-67
2022/06/08 01:53:49;;;;;;;111.22;43.28;;;;;;;12.25;100.00;100804.28;5073899;28;20039;-69
2022/06/08 01:56:42;;;;;;;100.55;41.22;;;;;;;12.27;100.00;100807.81;5071184;28;20050;-68
2022/06/08 01:59:16;;;;;;;100.43;41.05;;;;;;;12.34;100.00;100798.94;5072591;28;20032;-65
2022/06/08 02:02:13;;;;;;;91.25;39.63;;;;;;;12.30;100.00;100792.75;5070695;28;20533;-65
2022/06/08 02:04:49;;;;;;;96.00;40.22;;;;;;;12.27;100.00;100797.19;5070952;28;20045;-64
2022/06/08 02:07:27;;;;;;;100.57;40.05;;;;;;;12.25;100.00;100791.91;5069961;28;20101;-64
2022/06/08 02:10:21;;;;;;;90.45;38.20;;;;;;;12.23;100.00;100782.19;5069849;28;20035;-63
2022/06/08 02:12:53;;;;;;;92.50;39.00;;;;;;;12.19;100.00;100779.56;5064602;28;20428;-65
2022/06/08 02:15:34;;;;;;;89.30;38.00;;;;;;;12.17;100.00;100775.16;5077073;28;20024;-65
2022/06/08 02:18:07;;;;;;;78.70;35.35;;;;;;;12.15;100.00;100771.63;5069681;28;20032;-64
2022/06/08 02:21:14;;;;;;;75.05;35.65;;;;;;;12.08;100.00;100765.47;5075193;28;20111;-63
2022/06/08 02:23:53;;;;;;;76.35;34.67;;;;;;;12.05;100.00;100754.00;4989985;28;20037;-65
2022/06/08 02:26:26;;;;;;;79.05;34.72;;;;;;;12.02;100.00;100750.44;5000225;28;20421;-69
2022/06/08 02:29:23;;;;;;;70.60;34.78;;;;;;;11.99;100.00;100752.25;4982023;28;20080;-68
2022/06/08 02:31:58;;;;;;;70.00;33.28;;;;;;;11.98;100.00;100750.47;4932079;29;20036;-69
2022/06/08 02:34:32;;;;;;;68.50;32.65;;;;;;;11.97;100.00;100746.97;4932265;29;20040;-69
2022/06/08 02:37:00;;;;;;;68.07;32.20;;;;;;;11.95;100.00;100747.84;4931394;29;20044;-68
2022/06/08 02:39:33;;;;;;;74.07;34.38;;;;;;;11.94;100.00;100738.13;4932251;29;20036;-66
2022/06/08 02:42:03;;;;;;;;;;;;;;;11.86;100.00;100743.41;4932004;29;20130;-68
2022/06/08 02:44:31;;;;;;;65.93;31.70;;;;;;;11.91;100.00;100740.75;4932394;29;19964;-69
2022/06/08 02:47:30;;;;;;;63.45;31.42;;;;;;;11.91;100.00;100732.81;4931837;29;20122;-67
2022/06/08 02:49:58;;;;;;;65.90;30.95;;;;;;;11.88;100.00;100736.34;4932304;29;20126;-68
2022/06/08 02:52:26;;;;;;;66.72;32.65;;;;;;;11.89;100.00;100726.63;4931663;29;20036;-68
2022/06/08 02:54:52;;;;;;;62.92;31.08;;;;;;;11.86;100.00;100728.41;4969270;28;20370;-67
2022/06/08 02:57:34;;;;;;;60.85;30.73;;;;;;;11.91;100.00;100732.81;4989552;28;20042;-68
2022/06/08 03:00:12;;;;;;;64.22;32.00;;;;;;;11.83;100.00;100730.19;4993458;28;20042;-68
2022/06/08 03:02:47;;;;;;;62.80;30.38;;;;;;;11.81;100.00;100724.00;4991017;28;20034;-66
2022/06/08 03:05:21;;;;;;;64.10;30.70;;;;;;;11.80;100.00;100720.47;4990963;28;20101;-67
2022/06/08 03:07:53;;;;;;;63.90;31.33;;;;;;;11.78;100.00;100716.97;5007040;28;20037;-69
2022/06/08 03:10:20;;;;;;;62.47;30.52;;;;;;;11.74;100.00;100707.25;5043763;28;20033;-69
2022/06/08 03:12:51;;;;;;;61.05;29.80;;;;;;;11.75;100.00;100710.78;5045904;28;20083;-68
2022/06/08 03:15:22;;;;;;;56.88;28.65;;;;;;;11.75;100.00;100706.38;5048700;28;20033;-66
2022/06/08 03:17:49;;;;;;;56.70;28.50;;;;;;;11.73;100.00;100710.78;5044844;28;20384;-69
2022/06/08 03:20:15;;;;;;;65.05;30.05;;;;;;;11.68;100.00;100717.88;5045509;28;20049;-69
2022/06/08 03:22:41;;;;;;;58.20;29.20;;;;;;;11.68;100.00;100710.78;5040470;28;20112;-65
2022/06/08 03:25:07;;;;;;;59.70;28.77;;;;;;;11.72;100.00;100713.44;5044971;28;20117;-68
2022/06/08 03:27:33;;;;;;;58.15;27.73;;;;;;;11.75;100.00;100714.31;5047473;28;20032;-69
2022/06/08 03:29:58;;;;;;;50.17;26.73;;;;;;;11.82;100.00;100721.38;5047429;28;20025;-67
2022/06/08 03:32:23;;;;;;;54.33;27.20;;;;;;;11.75;100.00;100711.69;5046122;28;20025;-69
2022/06/08 03:34:49;;;;;;;56.33;27.40;;;;;;;11.78;100.00;100711.66;5046593;28;20045;-67
2022/06/08 03:37:15;;;;;;;49.00;25.50;;;;;;;11.84;100.00;100714.28;5046905;28;20037;-68
2022/06/08 03:39:40;;;;;;;53.80;26.63;;;;;;;11.91;100.00;100719.56;5045151;28;20032;-68
2022/06/08 03:42:06;;;;;;;53.78;26.35;;;;;;;11.94;100.00;100719.56;5047616;28;20029;-67
2022/06/08 03:44:31;;;;;;;51.80;26.00;;;;;;;12.01;100.00;100716.03;5046233;28;20071;-68
2022/06/08 03:47:03;;;;;;;48.42;25.10;;;;;;;12.06;100.00;100719.56;5044210;28;20021;-69
2022/06/08 03:49:30;;;;;;;50.25;25.23;;;;;;;12.12;100.00;100719.53;5046331;28;20017;-68
2022/06/08 03:51:57;;;;;;;47.75;25.20;;;;;;;12.23;100.00;100723.88;5043734;28;20068;-68
2022/06/08 03:54:27;;;;;;;48.15;25.35;;;;;;;12.29;100.00;100724.75;5044474;28;20350;-69
2022/06/08 03:56:55;;;;;;;48.83;25.05;;;;;;;12.35;100.00;100723.84;5047694;28;20032;-68
2022/06/08 03:59:22;;;;;;;47.58;24.67;;;;;;;12.42;100.00;100722.03;5043988;28;20112;-67
2022/06/08 04:01:48;;;;;;;47.17;24.60;;;;;;;12.49;100.00;100721.13;5045916;28;20068;-69
2022/06/08 04:04:13;;;;;;;46.88;24.15;;;;;;;12.49;100.00;100719.34;5045838;28;20049;-67
2022/06/08 04:06:39;;;;;;;44.58;23.60;;;;;;;12.53;100.00;100709.59;5044421;28;20017;-69
2022/06/08 04:09:04;;;;;;;45.05;23.85;;;;;;;12.56;100.00;100706.94;5043931;28;20024;-68
2022/06/08 04:11:30;;;;;;;42.88;22.83;;;;;;;12.60;100.00;100708.69;5042901;28;20026;-69
2022/06/08 04:13:56;;;;;;;42.53;22.83;;;;;;;12.65;100.00;100709.50;5043791;28;20025;-67
2022/06/08 04:16:22;;;;;;;42.47;22.70;;;;;;;12.67;100.00;100701.59;5047481;28;20108;-68
2022/06/08 04:18:47;;;;;;;43.97;23.00;;;;;;;12.64;100.00;100698.91;5047250;28;20029;-64
2022/06/08 04:21:14;;;;;;;41.20;22.00;;;;;;;12.62;100.00;100698.94;5040796;28;20022;-65
2022/06/08 04:23:41;;;;;;;39.88;21.67;;;;;;;12.63;100.00;100697.19;5043248;28;20032;-65
2022/06/08 04:26:07;;;;;;;38.30;20.75;;;;;;;12.64;100.00;100688.31;5045795;28;20049;-65
2022/06/08 04:28:34;;;;;;;39.97;21.13;;;;;;;12.67;100.00;100693.63;5045957;28;20029;-64
2022/06/08 04:31:00;;;;;;;40.10;21.30;;;;;;;12.70;100.00;100688.28;5043228;28;20392;-64
2022/06/08 04:33:25;;;;;;;37.92;20.40;;;;;;;12.69;100.00;100695.34;5045020;28;20031;-65
2022/06/08 04:35:51;;;;;;;38.42;20.63;;;;;;;12.71;100.00;100692.69;5043812;28;20054;-65
2022/06/08 04:38:17;;;;;;;36.17;20.02;;;;;;;12.71;100.00;100687.38;5045486;28;20032;-65
2022/06/08 04:40:44;;;;;;;36.53;20.08;;;;;;;12.74;100.00;100692.66;5041405;28;20482;-65
2022/06/08 04:43:10;;;;;;;38.72;20.08;;;;;;;12.76;100.00;100692.69;5045558;28;20033;-65
2022/06/08 04:45:35;;;;;;;35.63;19.63;;;;;;;12.76;100.00;100682.06;5041781;28;20044;-68
2022/06/08 04:48:02;;;;;;;38.47;20.40;;;;;;;12.81;100.00;100677.59;5045284;28;20384;-64
2022/06/08 04:50:28;;;;;;;34.78;19.40;;;;;;;12.89;100.00;100668.69;5041800;28;20048;-68
2022/06/08 04:52:53;;;;;;;37.97;20.25;;;;;;;12.93;100.00;100666.00;5043733;28;20034;-67
2022/06/08 04:55:19;;;;;;;35.05;19.30;;;;;;;12.96;100.00;100671.28;5045403;28;20032;-69
2022/06/08 04:57:44;;;;;;;33.75;18.70;;;;;;;12.99;100.00;100668.59;5044900;28;20029;-68
2022/06/08 05:00:14;;;;;;;33.90;18.95;;;;;;;13.00;100.00;100665.06;5045399;28;20476;-68
2022/06/08 05:02:43;;;;;;;34.38;18.52;;;;;;;13.00;100.00;100657.97;5042282;28;20147;-66
2022/06/08 05:05:14;;;;;;;32.88;17.95;;;;;;;13.06;100.00;100662.34;5043784;28;20036;-67
2022/06/08 05:07:40;;;;;;;33.42;18.08;;;;;;;13.04;100.00;100658.84;5044601;28;20036;-68
2022/06/08 05:10:06;;;;;;;33.45;17.83;;;;;;;13.07;100.00;100666.78;5044532;28;20016;-68
2022/06/08 05:12:32;;;;;;;34.17;18.73;;;;;;;13.09;100.00;100667.63;5042171;28;20499;-68
2022/06/08 05:14:58;;;;;;;31.95;17.77;;;;;;;13.11;100.00;100660.53;5042179;28;20037;-68
2022/06/08 05:17:24;;;;;;;31.30;17.08;;;;;;;13.14;100.00;100652.56;5039987;28;20032;-68
2022/06/08 05:19:49;;;;;;;30.67;16.75;;;;;;;13.15;100.00;100651.66;5043712;28;20021;-67
2022/06/08 05:22:14;;;;;;;31.17;16.75;;;;;;;13.22;100.00;100642.75;5046181;28;20021;-68
2022/06/08 05:24:40;;;;;;;30.63;16.85;;;;;;;13.29;100.00;100637.38;5044463;28;20068;-65
2022/06/08 05:27:05;;;;;;;30.45;16.17;;;;;;;13.33;100.00;100636.47;5044251;28;20120;-67
2022/06/08 05:29:30;;;;;;;29.08;16.05;;;;;;;13.37;100.00;100638.22;5044694;28;20091;-67
2022/06/08 05:31:56;;;;;;;30.13;15.85;;;;;;;13.39;100.00;100639.94;5043584;28;20033;-68
2022/06/08 05:34:22;;;;;;;29.20;15.80;;;;;;;13.40;100.00;100630.22;5044207;28;20041;-67
2022/06/08 05:36:47;;;;;;;28.15;15.40;;;;;;;13.43;100.00;100624.88;5042052;28;20033;-67
2022/06/08 05:39:13;;;;;;;26.88;14.88;;;;;;;13.45;100.00;100619.53;5045451;28;20427;-68
2022/06/08 05:41:38;;;;;;;27.15;15.20;;;;;;;13.49;100.00;100614.19;5040948;28;20033;-68
2022/06/08 05:44:04;;;;;;;27.25;14.85;;;;;;;13.53;100.00;100615.03;5044188;28;20029;-67
2022/06/08 05:46:29;;;;;;;27.13;14.45;;;;;;;13.55;100.00;100619.41;5043421;28;20033;-65
2022/06/08 05:48:55;;;;;;;27.05;14.73;;;;;;;13.72;100.00;100615.69;5040718;28;20094;-70
2022/06/08 05:51:20;;;;;;;28.00;14.80;;;;;;;13.80;100.00;100608.50;5042841;28;20049;-70
2022/06/08 05:53:46;;;;;;;26.90;14.20;;;;;;;13.83;100.00;100612.91;5044214;28;20461;-73
2022/06/08 05:56:11;;;;;;;27.45;14.52;;;;;;;13.87;100.00;100604.00;5047144;28;20767;-70
2022/06/08 05:58:36;;;;;;;24.83;13.23;;;;;;;13.93;100.00;100598.59;5041360;28;20377;-72
2022/06/08 06:01:02;;;;;;;26.10;12.77;;;;;;;13.97;100.00;100591.47;5041033;28;20119;-70
2022/06/08 06:03:27;;;;;;;24.92;12.70;;;;;;;14.05;100.00;100595.78;5043762;28;20475;-72
2022/06/08 06:05:53;;;;;;;24.42;12.75;;;;;;;14.13;100.00;100593.00;5043270;28;20056;-70
2022/06/08 06:08:18;;;;;;;24.33;12.30;;;;;;;14.11;100.00;100593.03;5037220;28;20465;-69
2022/06/08 06:10:45;;;;;;;23.88;12.00;;;;;;;14.20;100.00;100594.69;5041830;28;20017;-70
2022/06/08 06:13:11;;;;;;;22.60;11.05;;;;;;;14.26;100.00;100596.38;5040519;28;20075;-73
2022/06/08 06:15:37;;;;;;;21.92;10.98;;;;;;;14.22;100.00;100592.84;5041494;28;20021;-73
2022/06/08 06:18:04;;;;;;;22.92;10.75;;;;;;;14.32;100.00;100595.41;5045519;28;20068;-70
2022/06/08 06:20:31;;;;;;;22.45;10.43;;;;;;;14.45;100.00;100594.31;5040914;28;20563;-75
2022/06/08 06:22:56;;;;;;;22.35;10.63;;;;;;;14.54;100.00;100601.25;5041146;28;20029;-74
2022/06/08 06:25:22;;;;;;;21.13;10.02;;;;;;;14.53;100.00;100597.69;5041640;28;20034;-71
2022/06/08 06:27:48;;;;;;;21.08;9.80;;;;;;;14.56;100.00;100605.66;5045172;28;20535;-69
2022/06/08 06:30:15;;;;;;;21.02;9.43;;;;;;;14.51;100.00;100593.34;5039900;28;20032;-73
2022/06/08 06:32:42;;;;;;;22.85;9.73;;;;;;;14.58;100.00;100602.97;5039322;28;20415;-71
2022/06/08 06:35:14;;;;;;;20.90;9.40;;;;;;;14.59;100.00;100605.59;5044440;28;20064;-70
2022/06/08 06:37:40;;;;;;;21.35;9.60;;;;;;;14.61;100.00;100603.81;5049475;28;20120;-71
2022/06/08 06:40:07;;;;;;;21.45;9.40;;;;;;;14.69;100.00;100600.16;5046141;28;20388;-71
2022/06/08 06:42:33;;;;;;;21.55;9.05;;;;;;;14.67;100.00;100607.31;5042611;28;20025;-70
2022/06/08 06:44:59;;;;;;;20.70;8.80;;;;;;;14.85;100.00;100598.13;5045678;28;20095;-71
2022/06/08 06:47:25;;;;;;;20.65;8.38;;;;;;;15.02;100.00;100600.50;5043582;28;20124;-69
2022/06/08 06:49:50;;;;;;;19.98;8.02;;;;;;;15.13;100.00;100596.72;5048118;28;20017;-66
2022/06/08 06:52:17;;;;;;;20.67;8.65;;;;;;;15.18;100.00;100593.97;5047886;28;20471;-68
2022/06/08 06:54:43;;;;;;;20.42;8.38;;;;;;;15.30;100.00;100583.09;5047096;28;20036;-68
2022/06/08 06:57:08;;;;;;;19.23;7.70;;;;;;;15.23;100.00;100589.47;5047327;28;20029;-68
2022/06/08 06:59:34;;;;;;;20.13;7.82;;;;;;;15.32;100.00;100586.59;5045169;28;20032;-67
2022/06/08 07:01:59;;;;;;;20.95;7.75;;;;;;;15.47;100.00;100581.88;5047873;28;20390;-65
2022/06/08 07:04:25;;;;;;;19.02;7.00;;;;;;;15.28;100.00;100574.25;5047294;28;20041;-68
2022/06/08 07:06:51;;;;;;;20.05;7.43;;;;;;;15.31;100.00;100579.53;5046333;28;20021;-67
2022/06/08 07:09:16;;;;;;;20.58;7.65;;;;;;;15.44;100.00;100584.63;5046583;28;20025;-67
2022/06/08 07:11:42;;;;;;;20.67;7.00;;;;;;;15.56;100.00;100579.03;5042152;28;20468;-67
2022/06/08 07:14:18;;;;;;;19.23;6.93;;;;;;;15.66;100.00;100580.59;5047793;28;20028;-66
2022/06/08 07:16:45;;;;;;;20.10;6.75;;;;;;;15.71;100.00;100576.97;5044735;28;20029;-65
2022/06/08 07:19:11;;;;;;;19.88;6.47;;;;;;;15.73;100.00;100580.44;5047560;28;20025;-67
2022/06/08 07:21:36;;;;;;;19.65;5.93;;;;;;;15.72;100.00;100568.06;5050141;28;20361;-66
2022/06/08 07:24:02;;;;;;;19.13;6.13;;;;;;;15.83;100.00;100571.41;5043229;28;20037;-67
2022/06/08 07:26:28;;;;;;;17.95;5.88;;;;;;;15.82;100.00;100574.97;5047269;28;20048;-69
2022/06/08 07:28:56;;;;;;;19.02;6.22;;;;;;;15.83;100.00;100580.28;5045844;28;20079;-67
2022/06/08 07:31:22;;;;;;;19.48;6.30;;;;;;;15.86;100.00;100560.69;5042523;28;20025;-66
2022/06/08 07:33:48;;;;;;;19.23;5.53;;;;;;;15.90;100.00;100557.03;5045765;28;20045;-63
2022/06/08 07:36:14;;;;;;;17.30;5.63;;;;;;;16.12;100.00;100561.88;5047870;28;20037;-63
2022/06/08 07:38:40;;;;;;;18.50;5.82;;;;;;;16.32;100.00;100558.72;5043812;28;20033;-63
2022/06/08 07:41:06;;;;;;;19.02;5.20;;;;;;;16.52;100.00;100566.25;5040279;28;20123;-64
2022/06/08 07:43:31;;;;;;;18.02;5.68;;;;;;;16.54;100.00;100559.97;5046636;28;20155;-63
2022/06/08 07:45:56;;;;;;;17.67;5.40;;;;;;;16.63;100.00;100564.22;5046426;28;20026;-65
2022/06/08 07:51:05;;;;;;;17.48;5.00;;;;;;;16.68;100.00;100564.94;5044754;28;20125;-63
2022/06/08 07:53:31;;;;;;;18.50;5.38;;;;;;;16.84;100.00;100562.75;5047049;28;20048;-65
2022/06/08 07:55:56;;;;;;;18.02;5.28;;;;;;;17.02;100.00;100561.47;5045665;28;20056;-63
2022/06/08 07:58:21;;;;;;;20.63;4.95;;;;;;;17.16;100.00;100569.06;5046183;28;20032;-65
2022/06/08 08:00:47;;;;;;;18.10;5.05;;;;;;;17.16;100.00;100565.53;5045221;28;20033;-64
2022/06/08 08:03:17;;;;;;;17.42;5.00;;;;;;;17.11;100.00;100571.00;5045095;28;20025;-64
2022/06/08 08:05:44;;;;;;;15.07;4.60;;;;;;;16.94;100.00;100582.13;5046432;28;20040;-64
2022/06/08 08:08:11;;;;;;;17.70;4.82;;;;;;;16.90;100.00;100572.44;5045576;28;20025;-63
2022/06/08 08:10:36;;;;;;;19.60;5.10;;;;;;;16.89;100.00;100562.69;5042587;28;20566;-65
2022/06/08 08:13:02;;;;;;;18.20;4.93;;;;;;;16.89;100.00;100570.69;5045188;28;20139;-65
2022/06/08 08:15:28;;;;;;;17.27;5.00;;;;;;;16.88;100.00;100569.81;5046107;28;20052;-65
2022/06/08 08:17:54;;;;;;;19.23;5.30;;;;;;;16.83;100.00;100569.00;5045433;28;20061;-65
2022/06/08 08:20:21;;;;;;;17.35;5.00;;;;;;;16.96;100.00;100568.75;5043782;28;20025;-66
2022/06/08 08:22:46;;;;;;;18.35;4.95;;;;;;;16.94;100.00;100563.44;5045157;28;20028;-65
2022/06/08 08:25:15;;;;;;;17.45;5.18;;;;;;;16.77;100.00;100573.66;5044417;28;20017;-64
2022/06/08 08:27:41;;;;;;;19.25;5.03;;;;;;;16.61;100.00;100568.69;5045507;28;20029;-63
2022/06/08 08:30:07;;;;;;;17.92;5.20;;;;;;;16.58;100.00;100565.25;5047785;28;20468;-64
2022/06/08 08:32:33;;;;;;;19.40;4.93;;;;;;;16.45;100.00;100570.84;5043030;28;20040;-65
2022/06/08 08:34:58;;;;;;;20.38;5.57;;;;;;;16.39;100.00;100569.22;5044036;28;20037;-64
2022/06/08 08:37:23;;;;;;;19.05;5.60;;;;;;;16.39;100.00;100561.22;5042442;28;20109;-63
2022/06/08 08:39:49;;;;;;;17.75;5.45;;;;;;;16.44;100.00;100558.47;5042096;28;20037;-65
2022/06/08 08:42:23;;;;;;;17.75;5.60;;;;;;;16.47;100.00;100570.81;5046473;28;20097;-65
2022/06/08 08:45:03;;;;;;;16.67;5.13;;;;;;;16.56;100.00;100567.94;5043689;28;20029;-65
2022/06/08 08:47:34;;;;;;;18.33;5.30;;;;;;;16.72;100.00;100566.63;5042678;28;20127;-63
2022/06/08 08:50:14;;;;;;;17.65;5.10;;;;;;;16.79;100.00;100561.13;5041649;28;20031;-65
2022/06/08 08:52:47;;;;;;;17.00;4.90;;;;;;;16.84;100.00;100569.91;5043855;28;20433;-65
2022/06/08 08:55:44;;;;;;;18.55;4.95;;;;;;;16.96;100.00;100566.94;5037988;28;20067;-65
2022/06/08 08:58:15;;;;;;;18.10;4.63;;;;;;;16.97;100.00;100562.50;5037698;28;20033;-64
2022/06/08 09:00:58;;;;;;;22.03;5.47;;;;;;;16.99;100.00;100566.84;5042423;28;20060;-63
2022/06/08 09:03:31;;;;;;;;;;;;;;;17.04;100.00;100569.44;5039710;28;20029;-65
2022/06/08 09:06:21;;;;;;;18.33;5.20;;;;;;;17.08;100.00;100581.75;5040224;28;19912;-71
2022/06/08 09:08:51;;;;;;;19.27;4.80;;;;;;;17.00;100.00;100571.28;5022477;28;20038;-66
2022/06/08 09:11:24;;;;;;;16.77;5.00;;;;;;;16.89;100.00;100568.00;5024200;28;20064;-67
2022/06/08 09:13:51;;;;;;;16.95;4.65;;;;;;;16.76;100.00;100570.13;5022166;28;20037;-67
2022/06/08 09:16:28;;;;;;;16.73;4.70;;;;;;;16.73;100.00;100568.41;5022906;28;20091;-71
2022/06/08 09:18:53;;;;;;;16.85;4.72;;;;;;;16.61;100.00;100566.03;5023806;28;20443;-71
2022/06/08 09:21:21;;;;;;;18.05;5.07;;;;;;;16.45;100.00;100568.19;5022083;28;20034;-70
2022/06/08 09:23:51;;;;;;;18.60;5.30;;;;;;;16.32;100.00;100562.28;5022517;28;20440;-67
2022/06/08 09:26:39;;;;;;;19.20;5.15;;;;;;;16.25;100.00;100563.34;5022324;28;20071;-67
2022/06/08 09:29:18;;;;;;;19.05;5.55;;;;;;;16.06;100.00;100567.34;5020224;28;20033;-67
2022/06/08 09:31:44;;;;;;;20.73;6.10;;;;;;;15.69;100.00;100561.00;5018389;28;20045;-64
2022/06/08 09:34:18;;;;;;;19.85;5.50;;;;;;;15.49;100.00;100566.75;5018734;28;20056;-65
2022/06/08 09:36:44;;;;;;;20.05;5.85;;;;;;;15.42;100.00;100565.09;5019315;28;20041;-65
2022/06/08 09:39:13;;;;;;;20.38;6.00;;;;;;;15.31;100.00;100573.31;5021024;28;20049;-65
2022/06/08 09:42:20;;;;;;;20.88;6.07;;;;;;;15.24;100.00;100572.56;5025051;28;20033;-65
2022/06/08 09:45:02;;;;;;;20.83;6.25;;;;;;;15.11;100.00;100571.03;4939200;29;20581;-65
2022/06/08 09:53:32;;;;;;;21.70;6.10;;;;;;;14.96;100.00;100573.06;4954358;28;20041;-64
2022/06/08 09:56:25;;;;;;;20.77;6.30;;;;;;;14.84;100.00;100583.06;4957952;28;20045;-65
2022/06/08 09:58:59;;;;;;;22.92;6.70;;;;;;;14.93;100.00;100581.13;4951701;28;20039;-66
2022/06/08 10:01:57;;;;;;;20.30;5.60;;;;;;;14.67;100.00;100586.03;4953433;28;20118;-69
2022/06/08 10:04:26;;;;;;;22.15;5.63;;;;;;;14.49;100.00;100572.09;4925724;29;20046;-68
2022/06/08 10:07:20;;;;;;;22.13;5.60;;;;;;;14.20;100.00;100575.16;4927003;29;20047;-71
2022/06/08 10:10:03;;;;;;;21.92;6.15;;;;;;;14.20;100.00;100586.69;4928403;29;20242;-68
2022/06/08 10:12:49;;;;;;;21.40;6.35;;;;;;;14.24;100.00;100568.91;4937220;29;20483;-70
2022/06/08 10:15:17;;;;;;;22.77;6.65;;;;;;;14.20;100.00;100577.81;4930299;29;20044;-70
2022/06/08 10:17:50;;;;;;;24.05;7.40;;;;;;;14.25;100.00;100579.53;4932844;29;20364;-75
2022/06/08 10:20:24;;;;;;;23.50;7.43;;;;;;;14.23;100.00;100572.50;4933866;28;20039;-63
2022/06/08 10:22:56;;;;;;;26.38;7.88;;;;;;;14.33;100.00;100575.88;5010466;28;20045;-72
2022/06/08 10:25:38;;;;;;;25.00;8.20;;;;;;;14.32;100.00;100582.09;5009867;28;20088;-70
2022/06/08 10:28:13;;;;;;;24.73;9.00;;;;;;;14.41;100.00;100576.63;5011795;28;20171;-73
2022/06/08 10:30:58;;;;;;;25.92;8.60;;;;;;;14.41;100.00;100572.19;5007031;28;20384;-71
2022/06/08 10:33:29;;;;;;;23.13;8.05;;;;;;;14.42;100.00;100573.94;5016268;28;20057;-69
2022/06/08 10:35:56;;;;;;;24.50;8.35;;;;;;;14.39;100.00;100574.00;5013073;28;20042;-71
2022/06/08 10:38:27;;;;;;;24.88;8.25;;;;;;;14.39;100.00;100574.00;5012750;28;20036;-67
2022/06/08 10:40:54;;;;;;;24.92;9.25;;;;;;;14.54;100.00;100570.22;5017973;28;20044;-71
2022/06/08 10:43:24;;;;;;;25.20;8.48;;;;;;;14.46;100.00;100578.31;5041611;28;20025;-71
2022/06/08 10:46:02;;;;;;;25.13;8.88;;;;;;;14.42;100.00;100570.44;5043368;28;20075;-71
2022/06/08 10:48:35;;;;;;;26.70;9.88;;;;;;;14.47;100.00;100577.44;5042592;28;20357;-71
2022/06/08 10:51:35;;;;;;;24.10;9.20;;;;;;;14.42;100.00;100570.44;5042740;28;20060;-71
2022/06/08 10:56:48;;;;;;;23.52;10.35;;;;;;;14.63;100.00;100567.47;5040568;28;20117;-69
2022/06/08 10:59:24;;;;;;;24.17;10.75;;;;;;;14.80;100.00;100566.28;5040822;28;20028;-70
2022/06/08 11:01:49;;;;;;;28.38;11.13;;;;;;;14.93;100.00;100564.28;5038617;28;20459;-69
2022/06/08 11:04:35;;;;;;;27.13;10.75;;;;;;;14.97;100.00;100564.19;5045385;28;20029;-71
2022/06/08 11:07:12;;;;;;;23.27;8.07;;;;;;;14.61;100.00;100545.31;5032060;28;20060;-64
2022/06/08 11:09:39;;;;;;;23.55;7.18;;;;;;;14.43;100.00;100551.78;5034094;28;20530;-68
2022/06/08 11:12:05;;;;;;;22.80;7.70;;;;;;;14.62;100.00;100551.50;5029339;28;20091;-70
2022/06/08 11:14:48;;;;;;;23.63;8.55;;;;;;;14.71;100.00;100545.13;5032163;28;20524;-73
2022/06/08 11:17:35;;;;;;;26.50;7.82;;;;;;;14.58;100.00;100542.66;5031222;28;20041;-72
2022/06/08 11:20:14;;;;;;;21.92;6.65;;;;;;;14.31;100.00;100541.31;5034413;28;20764;-70
2022/06/08 11:23:01;;;;;;;20.67;6.50;;;;;;;14.23;100.00;100543.25;5032880;28;20049;-71
2022/06/08 11:25:32;;;;;;;23.20;7.47;;;;;;;14.19;100.00;100537.09;5038366;28;20040;-71
2022/06/08 11:28:28;;;;;;;22.73;7.40;;;;;;;14.18;100.00;100535.31;5039128;28;20531;-72
2022/06/08 11:30:57;;;;;;;25.00;7.85;;;;;;;14.19;100.00;100530.91;5036702;28;20041;-72
2022/06/08 11:33:23;;;;;;;24.13;7.95;;;;;;;14.24;100.00;100519.28;5040310;28;20559;-69